Time;durP1;ratioP1;P1;durP2;ratioP2;P2;SDS_P1;SDS_P2;PMS_P1;PMS_P2;Temp;Humidity;BMP_temperature;BMP_pressure;BME280_temperature;BME280_humidity;BME280_pressure;Samples;Min_cycle;Max_cycle;Signal;HPM_P1;HPM_P2
2022/07/20 00:01:44;;;;;;;2.72;2.22;;;26.80;99.90;;;;;;6159765;23;20013;-71
2022/07/20 00:04:10;;;;;;;3.33;2.20;;;26.80;99.90;;;;;;6155007;23;20503;-71
2022/07/20 00:06:35;;;;;;;3.92;1.90;;;26.80;99.90;;;;;;6156337;23;20088;-71
2022/07/20 00:11:46;;;;;;;3.25;2.00;;;26.80;99.90;;;;;;6182270;23;20063;-71
2022/07/20 00:14:12;;;;;;;4.63;1.80;;;26.80;99.90;;;;;;6130262;23;20013;-70
2022/07/20 00:16:38;;;;;;;2.85;2.20;;;26.80;99.90;;;;;;6155284;23;20009;-71
2022/07/20 00:19:04;;;;;;;4.18;2.17;;;26.80;99.90;;;;;;6153982;23;20013;-69
2022/07/20 00:21:30;;;;;;;5.53;2.40;;;26.80;99.90;;;;;;6181054;23;20357;-71
2022/07/20 00:23:56;;;;;;;2.67;2.10;;;26.90;99.90;;;;;;6181256;23;20040;-71
2022/07/20 00:26:21;;;;;;;4.45;2.50;;;26.90;99.90;;;;;;6180612;23;20445;-71
2022/07/20 00:28:50;;;;;;;4.70;2.30;;;27.00;99.90;;;;;;6181211;23;20016;-71
2022/07/20 00:31:17;;;;;;;5.55;2.13;;;27.00;99.90;;;;;;6153463;23;20453;-71
2022/07/20 00:33:46;;;;;;;4.72;2.35;;;27.00;99.90;;;;;;6155738;23;20318;-72
2022/07/20 00:36:13;;;;;;;4.30;2.35;;;27.00;99.90;;;;;;6153052;23;20040;-70
2022/07/20 00:38:39;;;;;;;3.00;1.92;;;27.00;99.90;;;;;;6154899;23;20013;-70
2022/07/20 00:41:04;;;;;;;3.13;2.00;;;27.00;99.90;;;;;;6179402;23;20017;-70
2022/07/20 00:44:01;;;;;;;3.10;2.22;;;27.00;99.90;;;;;;6154356;23;20302;-70
2022/07/20 00:46:30;;;;;;;3.35;2.22;;;27.00;99.90;;;;;;6180709;23;20013;-70
2022/07/20 00:48:56;;;;;;;2.55;2.20;;;27.10;99.90;;;;;;6154001;23;20437;-71
2022/07/20 00:51:22;;;;;;;5.07;2.45;;;27.00;99.90;;;;;;6154548;23;20183;-69
2022/07/20 00:53:48;;;;;;;3.20;2.35;;;27.00;99.90;;;;;;6181623;23;20077;-71
2022/07/20 00:56:17;;;;;;;3.67;2.05;;;27.00;99.90;;;;;;6181667;23;20016;-71
2022/07/20 00:58:43;;;;;;;3.10;2.30;;;27.00;99.90;;;;;;6154593;23;20023;-70
2022/07/20 01:01:09;;;;;;;5.60;2.42;;;27.00;99.90;;;;;;6180597;22;20051;-71
2022/07/20 01:03:35;;;;;;;4.10;2.10;;;27.10;99.90;;;;;;6181527;23;20441;-71
2022/07/20 01:06:01;;;;;;;6.05;2.60;;;27.00;99.90;;;;;;6155302;23;20021;-70
2022/07/20 01:08:28;;;;;;;3.88;2.20;;;27.10;99.90;;;;;;6180487;23;20013;-70
2022/07/20 01:10:56;;;;;;;3.40;1.92;;;27.10;99.90;;;;;;6154103;23;20024;-71
2022/07/20 01:13:22;;;;;;;4.35;1.80;;;27.10;99.90;;;;;;6179208;23;20017;-71
2022/07/20 01:15:48;;;;;;;4.32;2.30;;;27.00;99.90;;;;;;6154317;23;20461;-70
2022/07/20 01:18:14;;;;;;;2.67;1.90;;;27.00;99.90;;;;;;6153845;23;20017;-70
2022/07/20 01:20:46;;;;;;;5.15;1.63;;;27.00;99.90;;;;;;6181977;22;20476;-71
2022/07/20 01:23:15;;;;;;;2.42;1.55;;;27.00;99.90;;;;;;6153727;23;20574;-71
2022/07/20 01:25:42;;;;;;;3.70;1.80;;;26.90;99.90;;;;;;6179954;23;20013;-70
2022/07/20 01:28:10;;;;;;;3.63;1.65;;;26.90;99.90;;;;;;6180508;23;20067;-70
2022/07/20 01:30:36;;;;;;;1.92;1.73;;;26.90;99.90;;;;;;6154480;23;20061;-71
2022/07/20 01:33:02;;;;;;;7.40;2.13;;;27.00;99.90;;;;;;6153593;23;20751;-70
2022/07/20 01:35:29;;;;;;;4.20;2.10;;;26.80;99.90;;;;;;6155149;23;20017;-70
2022/07/20 01:37:55;;;;;;;2.80;2.10;;;26.80;99.90;;;;;;6181811;23;20041;-70
2022/07/20 01:40:21;;;;;;;4.20;2.00;;;26.80;99.90;;;;;;6153230;23;20151;-71
2022/07/20 01:42:47;;;;;;;3.70;2.30;;;26.70;99.90;;;;;;6154817;23;20033;-71
2022/07/20 01:45:12;;;;;;;5.55;2.10;;;26.70;99.90;;;;;;6153546;23;20024;-71
2022/07/20 01:47:38;;;;;;;2.78;1.88;;;26.60;99.90;;;;;;6154665;23;20017;-71
2022/07/20 01:50:05;;;;;;;2.20;1.70;;;26.70;99.90;;;;;;6154092;23;20013;-70
2022/07/20 01:52:31;;;;;;;4.57;2.13;;;26.60;99.90;;;;;;6181313;23;20388;-70
2022/07/20 01:54:57;;;;;;;4.10;2.50;;;26.70;99.90;;;;;;6153719;23;20094;-71
2022/07/20 01:57:23;;;;;;;3.15;2.45;;;26.60;99.90;;;;;;6179228;23;20020;-70
2022/07/20 01:59:49;;;;;;;4.57;2.67;;;26.60;99.90;;;;;;6182702;23;20370;-70
2022/07/20 02:02:15;;;;;;;4.80;2.50;;;26.50;99.90;;;;;;6179018;23;20025;-70
2022/07/20 02:04:40;;;;;;;6.00;3.13;;;26.50;99.90;;;;;;6179832;23;20013;-71
2022/07/20 02:07:06;;;;;;;3.63;2.92;;;26.50;99.90;;;;;;6164892;23;20021;-70
2022/07/20 02:09:32;;;;;;;4.32;3.05;;;26.50;99.90;;;;;;6142035;23;20013;-70
2022/07/20 02:11:58;;;;;;;4.65;3.03;;;26.50;99.90;;;;;;6179995;23;20019;-70
2022/07/20 02:14:25;;;;;;;5.63;3.40;;;26.50;99.90;;;;;;6180079;23;20406;-71
2022/07/20 02:16:55;;;;;;;6.85;3.20;;;26.50;99.90;;;;;;6153792;23;20079;-70
2022/07/20 02:19:22;;;;;;;4.65;3.03;;;26.50;99.90;;;;;;6152383;23;20020;-71
2022/07/20 02:21:48;;;;;;;4.40;3.40;;;26.40;99.90;;;;;;6180420;23;20079;-70
2022/07/20 02:24:14;;;;;;;4.60;2.75;;;26.40;99.90;;;;;;6152607;23;20092;-71
2022/07/20 02:26:40;;;;;;;7.53;3.05;;;26.40;99.90;;;;;;6153068;23;20013;-71
2022/07/20 02:29:06;;;;;;;7.63;4.10;;;26.50;99.90;;;;;;6153494;23;20016;-70
2022/07/20 02:31:32;;;;;;;5.63;3.20;;;26.40;99.90;;;;;;6154205;23;20041;-71
2022/07/20 02:33:58;;;;;;;3.50;2.40;;;26.40;99.90;;;;;;6153611;23;20013;-71
2022/07/20 02:36:24;;;;;;;4.43;2.28;;;26.40;99.90;;;;;;6180199;23;20051;-70
2022/07/20 02:38:50;;;;;;;5.20;2.70;;;26.30;99.90;;;;;;6155413;23;20068;-71
2022/07/20 02:41:16;;;;;;;3.65;2.17;;;26.30;99.90;;;;;;6181291;23;20088;-70
2022/07/20 02:43:42;;;;;;;3.53;2.40;;;26.20;99.90;;;;;;6155818;23;20040;-70
2022/07/20 02:46:08;;;;;;;5.10;2.20;;;26.10;99.90;;;;;;6153591;23;20430;-70
2022/07/20 02:48:34;;;;;;;4.30;1.95;;;26.10;99.90;;;;;;6182108;23;20005;-70
2022/07/20 02:51:00;;;;;;;3.38;1.80;;;26.00;99.90;;;;;;6182105;23;20147;-70
2022/07/20 02:53:26;;;;;;;2.00;1.80;;;26.00;99.90;;;;;;6181700;23;20013;-71
2022/07/20 02:55:52;;;;;;;3.90;2.00;;;26.00;99.90;;;;;;6181387;23;20068;-70
2022/07/20 02:58:18;;;;;;;3.28;2.13;;;26.00;99.90;;;;;;6180789;23;20021;-70
2022/07/20 03:00:44;;;;;;;2.80;2.15;;;26.00;99.90;;;;;;6182059;23;20073;-69
2022/07/20 03:03:10;;;;;;;4.63;2.40;;;26.00;99.90;;;;;;6180696;23;20017;-69
2022/07/20 03:05:37;;;;;;;5.03;2.40;;;26.00;99.90;;;;;;6182084;23;20005;-70
2022/07/20 03:08:05;;;;;;;2.53;2.10;;;26.00;99.90;;;;;;6155308;23;20028;-71
2022/07/20 03:10:32;;;;;;;2.17;1.77;;;26.00;99.90;;;;;;6157784;23;20099;-71
2022/07/20 03:12:58;;;;;;;2.47;1.80;;;26.00;99.90;;;;;;6132114;23;20009;-71
2022/07/20 03:15:24;;;;;;;2.00;1.73;;;26.00;99.90;;;;;;6155364;23;20112;-70
2022/07/20 03:17:53;;;;;;;3.45;1.98;;;26.00;99.90;;;;;;6156812;23;20807;-70
2022/07/20 03:20:21;;;;;;;1.92;1.70;;;25.90;99.90;;;;;;6182034;23;20040;-71
2022/07/20 03:22:47;;;;;;;5.43;1.98;;;25.90;99.90;;;;;;6182850;23;19997;-71
2022/07/20 03:25:13;;;;;;;2.45;1.67;;;25.90;99.90;;;;;;6181171;23;20421;-70
2022/07/20 03:27:46;;;;;;;3.15;2.00;;;25.90;99.90;;;;;;6160011;23;20686;-70
2022/07/20 03:30:13;;;;;;;4.05;2.15;;;25.90;99.90;;;;;;6180759;23;20397;-71
2022/07/20 03:32:40;;;;;;;2.88;2.00;;;25.90;99.90;;;;;;6182323;23;20017;-70
2022/07/20 03:35:06;;;;;;;2.95;2.00;;;25.80;99.90;;;;;;6180599;23;20088;-70
2022/07/20 03:37:32;;;;;;;3.38;2.00;;;25.80;99.90;;;;;;6182590;23;20013;-70
2022/07/20 03:39:58;;;;;;;5.38;1.83;;;25.70;99.90;;;;;;6182461;23;20017;-70
2022/07/20 03:42:23;;;;;;;2.95;2.10;;;25.70;99.90;;;;;;6181295;23;20031;-69
2022/07/20 03:44:50;;;;;;;3.55;1.95;;;25.70;99.90;;;;;;6155364;23;20021;-70
2022/07/20 03:47:16;;;;;;;3.50;1.80;;;25.60;99.90;;;;;;6180318;23;20017;-70
2022/07/20 03:49:42;;;;;;;6.88;2.20;;;25.70;99.90;;;;;;6155431;23;20463;-70
2022/07/20 03:52:08;;;;;;;4.03;1.88;;;25.70;99.90;;;;;;6155347;23;20440;-70
2022/07/20 03:54:34;;;;;;;2.60;2.00;;;25.70;99.90;;;;;;6181489;23;20005;-70
2022/07/20 03:56:59;;;;;;;3.03;2.20;;;25.70;99.90;;;;;;6155327;23;20024;-69
2022/07/20 03:59:26;;;;;;;5.00;2.20;;;25.70;99.90;;;;;;6154486;23;20024;-69
2022/07/20 04:01:52;;;;;;;2.47;1.70;;;25.70;99.90;;;;;;6181128;23;20025;-70
2022/07/20 04:04:18;;;;;;;4.65;1.60;;;25.60;99.90;;;;;;6179981;23;20013;-70
2022/07/20 04:06:44;;;;;;;2.17;1.80;;;25.70;99.90;;;;;;6154582;23;20088;-70
2022/07/20 04:09:09;;;;;;;2.22;1.60;;;25.60;99.90;;;;;;6153265;23;20504;-70
2022/07/20 04:11:35;;;;;;;4.28;1.90;;;25.60;99.90;;;;;;6154007;23;20015;-70
2022/07/20 04:14:01;;;;;;;2.67;1.80;;;25.50;99.90;;;;;;6153693;23;20049;-70
2022/07/20 04:16:27;;;;;;;5.20;1.98;;;25.50;99.90;;;;;;6180795;23;20338;-70
2022/07/20 04:18:53;;;;;;;3.95;1.90;;;25.50;99.90;;;;;;6153877;23;20433;-70
2022/07/20 04:21:19;;;;;;;2.80;1.67;;;25.50;99.90;;;;;;6179736;23;20020;-69
2022/07/20 04:23:45;;;;;;;3.00;2.05;;;25.50;99.90;;;;;;6155203;23;20009;-70
2022/07/20 04:26:11;;;;;;;3.90;2.10;;;25.50;99.90;;;;;;6153790;23;20932;-69
2022/07/20 04:28:36;;;;;;;7.47;2.15;;;25.60;99.90;;;;;;6181371;23;20059;-71
2022/07/20 04:31:02;;;;;;;5.20;2.08;;;25.60;99.90;;;;;;6153722;23;20017;-71
2022/07/20 04:33:28;;;;;;;3.60;2.28;;;25.50;99.90;;;;;;6182073;23;20013;-71
2022/07/20 04:35:54;;;;;;;5.05;2.20;;;25.60;99.90;;;;;;6154592;23;20043;-71
2022/07/20 04:38:21;;;;;;;2.97;2.13;;;25.60;99.90;;;;;;6180153;23;20043;-71
2022/07/20 04:40:47;;;;;;;2.67;2.00;;;25.60;99.90;;;;;;6154144;23;20013;-70
2022/07/20 04:43:13;;;;;;;3.22;2.10;;;25.70;99.90;;;;;;6179991;23;20017;-69
2022/07/20 04:45:39;;;;;;;4.07;2.00;;;25.70;99.90;;;;;;6154362;23;20009;-70
2022/07/20 04:48:05;;;;;;;4.75;2.53;;;25.60;99.90;;;;;;6151923;23;20019;-69
2022/07/20 04:50:32;;;;;;;3.45;2.00;;;25.70;99.90;;;;;;6180450;23;20075;-70
2022/07/20 04:52:57;;;;;;;3.58;2.30;;;25.70;99.80;;;;;;6180822;23;20016;-71
2022/07/20 04:55:23;;;;;;;5.47;1.80;;;25.70;99.20;;;;;;6179535;23;20083;-70
2022/07/20 04:57:49;;;;;;;3.05;2.03;;;25.70;99.00;;;;;;6181094;23;20078;-70
2022/07/20 05:00:15;;;;;;;3.00;1.88;;;25.70;98.90;;;;;;6153792;23;20017;-70
2022/07/20 05:02:41;;;;;;;2.50;1.70;;;25.60;99.10;;;;;;6183243;23;20028;-71
2022/07/20 05:05:07;;;;;;;6.28;2.58;;;25.70;98.90;;;;;;6180499;23;20361;-70
2022/07/20 05:07:34;;;;;;;3.55;2.20;;;25.70;98.30;;;;;;6159944;23;20020;-70
2022/07/20 05:10:00;;;;;;;4.10;2.25;;;25.70;98.80;;;;;;6183286;23;20016;-71
2022/07/20 05:12:25;;;;;;;5.60;2.38;;;25.70;98.90;;;;;;6179961;23;20313;-71
2022/07/20 05:14:52;;;;;;;4.47;2.28;;;25.70;98.70;;;;;;6180711;23;20017;-70
2022/07/20 05:17:18;;;;;;;3.45;2.03;;;25.80;98.70;;;;;;6180307;23;20017;-71
2022/07/20 05:19:43;;;;;;;6.72;2.25;;;25.90;98.60;;;;;;6180748;23;20083;-71
2022/07/20 05:22:09;;;;;;;3.80;2.22;;;26.00;98.40;;;;;;6179668;23;20048;-71
2022/07/20 05:24:35;;;;;;;4.90;2.70;;;26.00;98.50;;;;;;6155859;23;20036;-70
2022/07/20 05:27:01;;;;;;;5.20;2.10;;;26.10;98.40;;;;;;6154010;23;20024;-69
2022/07/20 05:29:26;;;;;;;7.15;2.50;;;26.10;98.30;;;;;;6152244;23;20017;-70
2022/07/20 05:31:52;;;;;;;9.77;2.60;;;26.20;98.00;;;;;;6159155;23;20463;-70
2022/07/20 05:34:18;;;;;;;6.00;2.60;;;26.30;97.90;;;;;;6151819;23;20373;-70
2022/07/20 05:36:44;;;;;;;4.95;2.45;;;26.30;97.80;;;;;;6181973;23;20040;-70
2022/07/20 05:39:09;;;;;;;4.88;3.00;;;26.40;97.90;;;;;;6180486;23;20044;-70
2022/07/20 05:41:36;;;;;;;7.68;2.63;;;26.40;98.10;;;;;;6182692;23;20020;-70
2022/07/20 05:44:02;;;;;;;5.50;2.58;;;26.50;98.20;;;;;;6154951;23;20029;-71
2022/07/20 05:46:28;;;;;;;4.13;2.80;;;26.50;98.30;;;;;;6155213;23;20009;-71
2022/07/20 05:48:53;;;;;;;5.07;2.97;;;26.60;98.40;;;;;;6155392;23;20092;-71
2022/07/20 05:51:19;;;;;;;8.73;2.80;;;26.60;98.20;;;;;;6180733;23;20035;-70
2022/07/20 05:53:45;;;;;;;7.03;2.83;;;26.60;97.90;;;;;;6144342;23;20438;-71
2022/07/20 05:56:11;;;;;;;7.30;3.03;;;26.70;98.50;;;;;;6148585;23;20634;-71
2022/07/20 05:58:37;;;;;;;6.82;3.42;;;26.70;98.90;;;;;;6181325;23;20040;-71
2022/07/20 06:01:04;;;;;;;7.13;3.60;;;26.70;99.20;;;;;;6179550;23;20373;-71
2022/07/20 06:03:30;;;;;;;6.40;3.55;;;26.70;99.60;;;;;;6154598;23;20021;-70
2022/07/20 06:05:56;;;;;;;4.75;3.65;;;26.70;99.90;;;;;;6155463;23;20036;-71
2022/07/20 06:08:21;;;;;;;10.30;4.20;;;26.80;99.90;;;;;;6181529;23;20009;-70
2022/07/20 06:10:47;;;;;;;8.70;4.15;;;26.80;99.90;;;;;;6155550;23;20013;-70
2022/07/20 06:13:13;;;;;;;6.45;4.30;;;26.80;99.90;;;;;;6157936;23;20016;-70
2022/07/20 06:15:39;;;;;;;9.88;4.20;;;26.90;99.90;;;;;;6184318;23;20382;-70
2022/07/20 06:18:06;;;;;;;7.05;4.10;;;26.90;99.90;;;;;;6183211;23;20024;-70
2022/07/20 06:20:32;;;;;;;9.85;4.32;;;27.00;99.90;;;;;;6157647;23;20028;-71
2022/07/20 06:22:58;;;;;;;11.18;4.10;;;27.00;99.90;;;;;;6183816;23;20028;-71
2022/07/20 06:25:25;;;;;;;7.93;3.97;;;27.10;99.90;;;;;;6156485;23;20059;-72
2022/07/20 06:27:50;;;;;;;7.90;3.35;;;27.10;99.90;;;;;;6183626;23;20020;-71
2022/07/20 06:30:16;;;;;;;13.48;4.13;;;27.20;99.90;;;;;;6182186;23;20013;-70
2022/07/20 06:32:43;;;;;;;8.35;4.38;;;27.30;99.90;;;;;;6156547;23;20012;-71
2022/07/20 06:35:10;;;;;;;8.13;3.97;;;27.30;99.90;;;;;;6181239;23;20179;-70
2022/07/20 06:37:38;;;;;;;6.15;3.92;;;27.40;99.90;;;;;;6156135;23;20009;-70
2022/07/20 06:40:04;;;;;;;7.82;3.50;;;27.50;99.90;;;;;;6150828;23;20009;-70
2022/07/20 06:42:31;;;;;;;7.72;4.18;;;27.50;99.90;;;;;;6165093;23;20021;-70
2022/07/20 06:44:56;;;;;;;9.75;4.35;;;27.60;99.90;;;;;;6154891;23;20009;-70
2022/07/20 06:47:22;;;;;;;6.32;3.92;;;27.70;99.80;;;;;;6154463;23;20021;-71
2022/07/20 06:49:48;;;;;;;8.02;4.05;;;27.80;99.60;;;;;;6181403;23;20067;-72
2022/07/20 06:52:14;;;;;;;5.15;3.40;;;27.90;99.90;;;;;;6180898;23;20373;-74
2022/07/20 06:54:40;;;;;;;4.75;3.33;;;27.90;99.90;;;;;;6169134;23;20052;-74
2022/07/20 06:57:05;;;;;;;11.98;4.10;;;28.00;99.90;;;;;;6145076;23;20069;-73
2022/07/20 06:59:31;;;;;;;11.07;4.22;;;28.00;99.90;;;;;;6175041;23;20037;-74
2022/07/20 07:01:57;;;;;;;6.50;3.90;;;28.10;99.90;;;;;;6179493;23;20021;-73
2022/07/20 07:04:23;;;;;;;10.30;4.05;;;28.10;99.90;;;;;;6158485;23;20018;-74
2022/07/20 07:06:49;;;;;;;10.80;4.22;;;28.10;99.90;;;;;;6154343;23;20013;-73
2022/07/20 07:09:15;;;;;;;9.15;4.57;;;28.10;99.90;;;;;;6152163;23;20535;-73
2022/07/20 07:11:41;;;;;;;7.43;4.65;;;28.10;99.90;;;;;;6180459;23;20017;-73
2022/07/20 07:14:06;;;;;;;6.47;4.63;;;28.10;99.90;;;;;;6171782;23;20021;-72
2022/07/20 07:16:32;;;;;;;7.60;4.60;;;28.10;99.90;;;;;;6153777;23;20098;-72
2022/07/20 07:18:58;;;;;;;8.18;4.35;;;28.10;99.90;;;;;;6149831;23;20178;-73
2022/07/20 07:21:24;;;;;;;8.85;4.47;;;28.20;99.90;;;;;;6146788;23;20021;-73
2022/07/20 07:23:50;;;;;;;10.05;4.50;;;28.20;99.90;;;;;;6151870;23;20017;-72
2022/07/20 07:26:18;;;;;;;9.55;5.05;;;28.30;99.90;;;;;;6180928;23;20023;-72
2022/07/20 07:28:44;;;;;;;7.35;4.47;;;28.30;99.90;;;;;;6148003;23;20017;-73
2022/07/20 07:31:11;;;;;;;8.10;4.80;;;28.30;99.90;;;;;;6149661;23;20596;-73
2022/07/20 07:33:37;;;;;;;7.85;4.63;;;28.40;99.90;;;;;;6148728;23;20061;-73
2022/07/20 07:36:04;;;;;;;9.68;4.78;;;28.50;99.90;;;;;;6174493;23;20005;-74
2022/07/20 07:38:30;;;;;;;9.73;5.38;;;28.50;99.90;;;;;;6147114;23;20012;-73
2022/07/20 07:40:56;;;;;;;6.60;4.65;;;28.50;99.90;;;;;;6174622;23;20017;-72
2022/07/20 07:43:22;;;;;;;11.45;4.50;;;28.60;99.90;;;;;;6174166;23;20066;-73
2022/07/20 07:45:47;;;;;;;9.75;4.53;;;28.50;99.90;;;;;;6172887;23;20067;-72
2022/07/20 07:48:14;;;;;;;12.98;4.70;;;28.60;99.90;;;;;;6173140;23;20013;-72
2022/07/20 07:50:41;;;;;;;10.05;4.40;;;28.70;99.90;;;;;;6147993;23;20043;-72
2022/07/20 07:53:10;;;;;;;7.10;3.97;;;28.70;99.90;;;;;;6173722;23;20021;-72
2022/07/20 07:55:37;;;;;;;8.65;3.85;;;28.80;99.90;;;;;;6173394;23;20460;-72
2022/07/20 07:58:04;;;;;;;9.75;4.72;;;29.00;99.90;;;;;;6145653;23;20017;-73
2022/07/20 08:00:30;;;;;;;7.85;5.28;;;29.00;99.90;;;;;;6144595;23;20441;-70
2022/07/20 08:02:56;;;;;;;8.68;5.57;;;28.90;99.90;;;;;;6167185;23;20021;-71
2022/07/20 08:05:22;;;;;;;10.73;4.97;;;29.10;99.90;;;;;;6141843;23;20024;-70
2022/07/20 08:07:48;;;;;;;15.68;5.53;;;29.10;99.90;;;;;;6137133;23;20009;-71
2022/07/20 08:10:14;;;;;;;12.02;4.85;;;29.20;99.90;;;;;;6166179;23;20013;-71
2022/07/20 08:12:40;;;;;;;8.05;5.22;;;29.40;99.90;;;;;;6166418;23;20017;-70
2022/07/20 08:15:07;;;;;;;9.82;4.63;;;29.40;99.90;;;;;;6178064;23;20070;-70
2022/07/20 08:17:33;;;;;;;19.48;6.35;;;29.30;99.90;;;;;;6147286;23;20020;-72
2022/07/20 08:19:59;;;;;;;11.70;5.75;;;29.40;99.90;;;;;;6173870;23;20084;-71
2022/07/20 08:22:25;;;;;;;14.93;5.90;;;29.30;99.90;;;;;;6172890;23;20471;-72
2022/07/20 08:24:51;;;;;;;15.80;5.00;;;29.40;99.90;;;;;;6175653;23;20021;-74
2022/07/20 08:27:17;;;;;;;16.77;6.30;;;29.60;99.90;;;;;;6174949;23;20041;-73
2022/07/20 08:29:43;;;;;;;13.50;5.40;;;29.60;99.90;;;;;;6146103;23;20017;-73
2022/07/20 08:32:08;;;;;;;12.48;5.75;;;29.80;99.90;;;;;;6129578;23;20013;-73
2022/07/20 08:34:34;;;;;;;7.63;4.85;;;29.90;99.90;;;;;;6149382;23;20009;-73
2022/07/20 08:37:00;;;;;;;8.50;4.68;;;29.90;99.90;;;;;;6172939;23;20024;-73
2022/07/20 08:39:26;;;;;;;7.75;4.65;;;29.80;99.90;;;;;;6148462;23;20004;-74
2022/07/20 08:41:53;;;;;;;6.78;4.43;;;29.90;99.90;;;;;;6146314;23;20013;-73
2022/07/20 08:44:19;;;;;;;9.43;4.55;;;30.00;99.90;;;;;;6176910;23;20468;-75
2022/07/20 08:46:45;;;;;;;6.13;4.18;;;30.10;99.90;;;;;;6179584;23;20013;-74
2022/07/20 08:49:14;;;;;;;9.43;4.50;;;30.10;99.90;;;;;;6176020;23;20028;-72
2022/07/20 08:51:40;;;;;;;6.72;4.30;;;30.30;99.90;;;;;;6179838;23;20032;-74
2022/07/20 08:54:06;;;;;;;7.15;4.88;;;30.30;99.90;;;;;;6152327;23;20013;-74
2022/07/20 08:56:31;;;;;;;8.30;5.10;;;30.30;99.90;;;;;;6177399;23;20023;-73
2022/07/20 08:58:57;;;;;;;9.90;5.10;;;30.30;99.90;;;;;;6149692;23;20063;-73
2022/07/20 09:01:23;;;;;;;8.38;5.05;;;30.40;99.90;;;;;;6150090;23;20068;-73
2022/07/20 09:04:09;;;;;;;5.30;4.45;;;30.20;99.90;;;;;;6152189;23;20020;-73
2022/07/20 09:06:43;;;;;;;7.20;4.68;;;30.40;99.90;;;;;;6188317;23;20020;-73
2022/07/20 09:09:09;;;;;;;7.05;4.95;;;30.30;99.90;;;;;;6152377;23;20108;-74
2022/07/20 09:11:35;;;;;;;16.20;5.88;;;30.30;99.90;;;;;;6178665;23;20025;-74
2022/07/20 09:14:01;;;;;;;9.80;4.93;;;30.30;99.90;;;;;;6177221;23;20052;-71
2022/07/20 09:16:43;;;;;;;9.10;4.53;;;30.30;99.90;;;;;;6177413;23;20037;-72
2022/07/20 09:19:09;;;;;;;10.43;5.00;;;30.10;99.90;;;;;;6178233;23;20024;-72
2022/07/20 09:21:35;;;;;;;7.90;4.18;;;30.20;99.90;;;;;;6149205;23;20013;-73
2022/07/20 09:24:06;;;;;;;5.65;4.00;;;30.40;99.90;;;;;;6150602;23;20019;-73
2022/07/20 09:26:32;;;;;;;9.25;3.88;;;30.40;99.90;;;;;;6161969;23;20040;-73
2022/07/20 09:29:00;;;;;;;9.00;3.72;;;30.60;99.90;;;;;;6148867;23;20021;-73
2022/07/20 09:31:35;;;;;;;9.50;4.20;;;30.80;99.90;;;;;;6150529;23;20075;-74
2022/07/20 09:34:12;;;;;;;8.77;4.25;;;30.90;99.90;;;;;;6152519;23;20005;-72
2022/07/20 09:36:47;;;;;;;6.57;4.70;;;30.90;99.90;;;;;;6178089;23;20092;-74
2022/07/20 09:39:21;;;;;;;11.15;5.30;;;30.70;99.90;;;;;;6150800;23;20901;-73
2022/07/20 09:41:56;;;;;;;6.25;4.43;;;30.80;99.90;;;;;;6178795;23;20092;-73
2022/07/20 09:44:27;;;;;;;6.63;4.50;;;30.90;99.90;;;;;;6177291;23;22973;-73
2022/07/20 09:46:54;;;;;;;10.90;4.70;;;30.80;99.90;;;;;;6175456;23;20013;-72
2022/07/20 09:49:23;;;;;;;7.15;4.35;;;30.70;99.90;;;;;;6150065;23;20095;-71
2022/07/20 09:51:58;;;;;;;10.23;4.80;;;30.80;99.90;;;;;;6178352;23;20009;-72
2022/07/20 09:54:24;;;;;;;9.07;4.60;;;30.70;99.90;;;;;;6176739;23;20016;-74
2022/07/20 09:56:52;;;;;;;5.65;3.90;;;31.10;99.90;;;;;;6175699;23;20301;-72
2022/07/20 09:59:20;;;;;;;6.47;4.10;;;31.40;99.90;;;;;;6169908;23;20020;-73
2022/07/20 10:01:51;;;;;;;6.28;4.25;;;31.60;99.90;;;;;;6147538;23;20028;-72
2022/07/20 10:04:19;;;;;;;7.10;4.13;;;31.60;99.90;;;;;;6174669;23;20017;-72
2022/07/20 10:06:51;;;;;;;8.15;3.95;;;31.80;99.90;;;;;;6150968;23;20013;-72
2022/07/20 10:09:17;;;;;;;6.38;4.13;;;31.90;99.90;;;;;;6149580;23;20043;-72
2022/07/20 10:11:44;;;;;;;5.68;3.70;;;31.80;99.90;;;;;;6150580;23;20365;-72
2022/07/20 10:14:10;;;;;;;6.50;4.00;;;31.70;99.90;;;;;;6150678;23;20526;-72
2022/07/20 10:16:46;;;;;;;5.22;3.92;;;31.70;99.90;;;;;;6178179;23;20579;-72
2022/07/20 10:19:12;;;;;;;5.63;4.30;;;31.80;99.90;;;;;;6147872;23;20027;-72
2022/07/20 10:21:44;;;;;;;7.68;3.72;;;31.70;99.90;;;;;;6176962;23;20100;-73
2022/07/20 10:24:25;;;;;;;5.38;4.20;;;31.60;99.90;;;;;;6148451;23;20024;-74
2022/07/20 10:27:16;;;;;;;6.10;3.80;;;31.30;99.90;;;;;;6151703;23;20013;-75
2022/07/20 10:29:50;;;;;;;6.03;4.20;;;31.40;99.90;;;;;;6170874;23;20020;-72
2022/07/20 10:32:25;;;;;;;8.55;4.38;;;31.30;99.90;;;;;;6170682;23;20017;-74
2022/07/20 10:34:54;;;;;;;7.03;4.13;;;31.40;99.90;;;;;;6147152;23;20017;-74
2022/07/20 10:37:39;;;;;;;6.28;3.72;;;31.60;99.90;;;;;;6171421;23;20013;-73
2022/07/20 10:40:12;;;;;;;3.95;2.90;;;31.80;99.90;;;;;;6172325;23;20443;-74
2022/07/20 10:42:45;;;;;;;9.45;3.80;;;32.20;99.90;;;;;;6146297;23;20106;-74
2022/07/20 10:45:19;;;;;;;8.73;3.03;;;32.40;99.90;;;;;;6146605;23;20017;-72
2022/07/20 10:47:48;;;;;;;7.78;3.30;;;32.50;99.90;;;;;;6172254;23;20009;-73
2022/07/20 10:50:36;;;;;;;8.27;3.53;;;32.50;99.90;;;;;;6145372;23;20032;-73
2022/07/20 10:53:11;;;;;;;4.22;3.10;;;32.50;99.90;;;;;;6176850;23;20068;-73
2022/07/20 10:55:36;;;;;;;5.93;3.22;;;32.50;99.90;;;;;;6184786;23;20019;-74
2022/07/20 10:58:04;;;;;;;4.53;2.72;;;32.90;99.90;;;;;;6175129;23;20337;-73
2022/07/20 11:00:32;;;;;;;7.93;3.40;;;33.00;99.90;;;;;;6175455;23;20061;-73
2022/07/20 11:02:58;;;;;;;10.82;3.83;;;33.30;99.90;;;;;;6175639;23;20037;-72
2022/07/20 11:05:24;;;;;;;5.68;3.53;;;33.40;99.90;;;;;;6147277;23;20009;-73
2022/07/20 11:07:50;;;;;;;7.00;3.25;;;33.20;99.90;;;;;;6173725;23;20096;-71
2022/07/20 11:10:26;;;;;;;7.53;4.00;;;33.40;99.90;;;;;;6148397;23;20088;-72
2022/07/20 11:12:56;;;;;;;5.30;3.47;;;33.30;99.90;;;;;;6148351;23;20441;-73
2022/07/20 11:15:22;;;;;;;4.18;3.03;;;33.50;99.90;;;;;;6147634;23;20124;-74
2022/07/20 11:17:48;;;;;;;7.00;3.40;;;33.20;99.90;;;;;;6173651;23;20460;-72
2022/07/20 11:20:17;;;;;;;8.82;3.70;;;33.10;99.90;;;;;;6147078;23;20491;-73
2022/07/20 11:22:44;;;;;;;5.80;3.55;;;33.30;99.90;;;;;;6173614;23;20017;-73
2022/07/20 11:25:10;;;;;;;6.88;3.88;;;33.20;99.90;;;;;;6147680;23;20084;-74
2022/07/20 11:27:36;;;;;;;5.78;3.97;;;33.00;99.90;;;;;;6172656;23;20013;-73
2022/07/20 11:30:03;;;;;;;5.65;3.47;;;32.90;99.90;;;;;;6148891;23;20032;-72
2022/07/20 11:32:29;;;;;;;10.25;4.00;;;33.10;99.90;;;;;;6172673;23;20051;-73
2022/07/20 11:34:54;;;;;;;6.45;3.83;;;33.20;99.90;;;;;;6173076;23;20452;-74
2022/07/20 11:37:21;;;;;;;8.20;4.32;;;33.60;99.90;;;;;;6142367;23;20891;-73
2022/07/20 11:39:48;;;;;;;5.53;3.92;;;33.80;99.90;;;;;;6168796;23;20092;-73
2022/07/20 11:42:16;;;;;;;10.80;4.30;;;34.10;99.90;;;;;;6168914;23;20048;-72
2022/07/20 11:44:58;;;;;;;7.40;4.43;;;34.00;99.90;;;;;;6147025;23;20013;-72
2022/07/20 11:47:24;;;;;;;6.75;3.88;;;34.20;99.90;;;;;;6178040;23;20024;-72
2022/07/20 11:50:04;;;;;;;7.38;3.67;;;34.20;99.90;;;;;;6152476;23;20013;-72
2022/07/20 11:52:41;;;;;;;5.68;3.63;;;34.20;99.90;;;;;;6167467;23;20879;-71
2022/07/20 11:55:07;;;;;;;5.30;3.60;;;33.90;99.90;;;;;;6140048;23;20021;-73
2022/07/20 11:57:34;;;;;;;5.47;3.65;;;33.80;99.90;;;;;;6167455;23;20047;-73
2022/07/20 11:59:59;;;;;;;11.00;3.90;;;34.00;99.90;;;;;;6167509;23;20529;-72
2022/07/20 12:02:27;;;;;;;7.15;4.28;;;33.70;99.90;;;;;;6140065;23;20046;-73
2022/07/20 12:04:53;;;;;;;7.50;4.10;;;33.60;99.90;;;;;;6177668;23;20028;-73
2022/07/20 12:10:24;;;;;;;8.35;4.75;;;34.50;99.90;;;;;;6177176;23;20028;-72
2022/07/20 12:13:07;;;;;;;9.68;4.18;;;34.60;99.90;;;;;;6179269;23;20040;-73
2022/07/20 12:15:34;;;;;;;10.18;4.70;;;34.90;99.90;;;;;;6163197;23;20017;-72
2022/07/20 12:18:00;;;;;;;7.47;4.47;;;35.30;99.90;;;;;;6179368;23;20005;-73
2022/07/20 12:20:26;;;;;;;12.00;5.00;;;35.10;99.90;;;;;;6127534;23;20020;-72
2022/07/20 12:22:56;;;;;;;7.30;4.57;;;35.30;99.90;;;;;;6179765;23;20009;-72
2022/07/20 12:25:33;;;;;;;6.28;4.85;;;35.90;99.90;;;;;;6152467;23;20072;-73
2022/07/20 12:27:59;;;;;;;8.00;4.80;;;35.60;99.90;;;;;;6152713;23;20013;-73
2022/07/20 12:30:34;;;;;;;9.75;5.45;;;35.20;99.90;;;;;;6178529;23;20301;-74
2022/07/20 12:33:13;;;;;;;7.28;4.32;;;35.40;99.90;;;;;;6179853;23;20020;-73
2022/07/20 12:35:50;;;;;;;9.02;5.32;;;35.30;99.90;;;;;;6162017;23;20033;-73
2022/07/20 12:38:17;;;;;;;10.27;5.20;;;34.50;99.90;;;;;;6178280;23;20015;-72
2022/07/20 12:40:44;;;;;;;8.07;4.82;;;35.10;99.90;;;;;;6152470;23;20032;-73
2022/07/20 12:43:34;;;;;;;10.43;5.47;;;35.20;99.90;;;;;;6177518;23;20433;-74
2022/07/20 12:46:07;;;;;;;7.72;4.78;;;35.10;99.90;;;;;;6179656;23;20016;-72
2022/07/20 12:48:59;;;;;;;9.00;5.57;;;35.10;99.90;;;;;;6177622;23;20075;-73
2022/07/20 12:51:25;;;;;;;9.38;5.50;;;35.60;99.90;;;;;;6146639;23;20058;-72
2022/07/20 12:53:51;;;;;;;7.15;5.05;;;35.10;99.90;;;;;;6179499;23;20484;-72